createdAt,value
2023-05-03T00:01:09.244Z,1014.3
2023-05-03T00:02:24.537Z,1014.3
2023-05-03T00:03:40.000Z,1014.3
2023-05-03T00:04:57.143Z,1014.3
2023-05-03T00:06:13.414Z,1014.2
2023-05-03T00:07:29.739Z,1014.3
2023-05-03T00:08:46.024Z,1014.2
2023-05-03T00:10:02.302Z,1014.3
2023-05-03T00:11:18.588Z,1014.2
2023-05-03T00:12:34.906Z,1014.2
2023-05-03T00:13:51.202Z,1014.2
2023-05-03T00:15:07.472Z,1014.2
2023-05-03T00:16:23.765Z,1014.2
2023-05-03T00:17:40.068Z,1014.2
2023-05-03T00:18:55.374Z,1014.2
2023-05-03T00:20:11.663Z,1014.2
2023-05-03T00:21:27.989Z,1014.2
2023-05-03T00:22:44.287Z,1014.2
2023-05-03T00:24:00.554Z,1014.3
2023-05-03T00:25:16.000Z,1014.3
2023-05-03T00:26:33.176Z,1014.3
2023-05-03T00:27:49.439Z,1014.3
2023-05-03T00:29:05.754Z,1014.2
2023-05-03T00:30:22.017Z,1014.3
2023-05-03T00:31:38.334Z,1014.2
2023-05-03T00:32:54.622Z,1014.2
2023-05-03T00:34:10.902Z,1014.3
2023-05-03T00:35:26.223Z,1014.2
2023-05-03T00:36:42.511Z,1014.2
2023-05-03T00:37:58.827Z,1014.2
2023-05-03T00:39:15.093Z,1014.2
2023-05-03T00:40:31.403Z,1014.2
2023-05-03T00:41:47.724Z,1014.1
2023-05-03T00:43:04.007Z,1014.2
2023-05-03T00:44:20.273Z,1014.1
2023-05-03T00:45:36.589Z,1014.2
2023-05-03T00:46:52.885Z,1014.1
2023-05-03T00:48:09.160Z,1014.1
2023-05-03T00:49:25.469Z,1014.1
2023-05-03T00:50:41.766Z,1014.1
2023-05-03T00:51:57.056Z,1014.1
2023-05-03T00:53:13.368Z,1014.1
2023-05-03T00:54:29.656Z,1014.1
2023-05-03T00:55:45.947Z,1014.1
2023-05-03T00:57:02.237Z,1014.1
2023-05-03T00:58:18.523Z,1014.1
2023-05-03T00:59:34.824Z,1014.2
2023-05-03T01:00:51.117Z,1014.2
2023-05-03T01:02:07.427Z,1014.2
2023-05-03T01:03:23.719Z,1014.1
2023-05-03T01:04:40.023Z,1014.2
2023-05-03T01:05:56.290Z,1014.1
2023-05-03T01:07:12.582Z,1014.1
2023-05-03T01:08:27.910Z,1014.1
2023-05-03T01:09:44.206Z,1014.1
2023-05-03T01:11:00.475Z,1014.1
2023-05-03T01:12:16.776Z,1014.1
2023-05-03T01:13:33.063Z,1014.1
2023-05-03T01:14:49.358Z,1014.1
2023-05-03T01:16:05.685Z,1014.1
2023-05-03T01:17:21.975Z,1014.1
2023-05-03T01:18:38.246Z,1014.1
2023-05-03T01:19:54.544Z,1014.1
2023-05-03T01:21:10.828Z,1014.1
2023-05-03T01:22:27.000Z,1014.1
2023-05-03T01:23:43.421Z,1014
2023-05-03T01:24:58.747Z,1014.1
2023-05-03T01:26:15.000Z,1014.1
2023-05-03T01:27:31.336Z,1014.1
2023-05-03T01:28:47.603Z,1014.1
2023-05-03T01:30:03.924Z,1014.1
2023-05-03T01:31:20.190Z,1014.1
2023-05-03T01:32:36.000Z,1014.1
2023-05-03T01:33:52.788Z,1014.1
2023-05-03T01:35:09.076Z,1014.1
2023-05-03T01:36:25.391Z,1014.2
2023-05-03T01:37:41.669Z,1014.1
2023-05-03T01:38:57.992Z,1014.2
2023-05-03T01:40:14.247Z,1014.2
2023-05-03T01:41:29.593Z,1014.2
2023-05-03T01:42:45.000Z,1014.3
2023-05-03T01:44:02.147Z,1014.3
2023-05-03T01:45:18.443Z,1014.3
2023-05-03T01:46:34.744Z,1014.3
2023-05-03T01:47:51.049Z,1014.2
2023-05-03T01:49:07.338Z,1014.3
2023-05-03T01:50:23.639Z,1014.3
2023-05-03T01:51:39.000Z,1014.2
2023-05-03T01:52:56.234Z,1014.3
2023-05-03T01:54:12.519Z,1014.3
2023-05-03T01:55:28.827Z,1014.3
2023-05-03T01:56:45.081Z,1014.2
2023-05-03T01:58:00.424Z,1014.3
2023-05-03T01:59:16.719Z,1014.3
2023-05-03T02:00:32.989Z,1014.3
2023-05-03T02:01:49.272Z,1014.3
2023-05-03T02:03:05.594Z,1014.3
2023-05-03T02:04:21.885Z,1014.3
2023-05-03T02:05:38.184Z,1014.3
2023-05-03T02:06:54.464Z,1014.3
2023-05-03T02:08:10.755Z,1014.3
2023-05-03T02:09:27.061Z,1014.3
2023-05-03T02:10:43.000Z,1014.2
2023-05-03T02:11:59.625Z,1014.3
2023-05-03T02:13:15.925Z,1014.3
2023-05-03T02:14:31.228Z,1014.2
2023-05-03T02:15:47.547Z,1014.3
2023-05-03T02:17:03.821Z,1014.3
2023-05-03T02:18:20.143Z,1014.3
2023-05-03T02:19:36.399Z,1014.3
2023-05-03T02:20:52.712Z,1014.3
2023-05-03T02:22:08.995Z,1014.3
2023-05-03T02:23:25.307Z,1014.3
2023-05-03T02:24:41.602Z,1014.3
2023-05-03T02:25:57.868Z,1014.4
2023-05-03T02:27:14.163Z,1014.3
2023-05-03T02:28:30.484Z,1014.3
2023-05-03T02:29:46.750Z,1014.3
2023-05-03T02:31:02.095Z,1014.3
2023-05-03T02:32:18.390Z,1014.3
2023-05-03T02:33:34.000Z,1014.3
2023-05-03T02:34:50.949Z,1014.3
2023-05-03T02:36:07.000Z,1014.3
2023-05-03T02:37:23.527Z,1014.4
2023-05-03T02:38:39.847Z,1014.4
2023-05-03T02:39:56.146Z,1014.4
2023-05-03T02:41:12.434Z,1014.4
2023-05-03T02:42:28.730Z,1014.4
2023-05-03T02:43:45.032Z,1014.4
2023-05-03T02:45:01.302Z,1014.4
2023-05-03T02:46:17.588Z,1014.4
2023-05-03T02:47:32.919Z,1014.5
2023-05-03T02:48:49.224Z,1014.5
2023-05-03T02:50:05.523Z,1014.5
2023-05-03T02:51:21.790Z,1014.5
2023-05-03T02:52:38.099Z,1014.5
2023-05-03T02:53:54.403Z,1014.5
2023-05-03T02:55:09.685Z,1014.5
2023-05-03T02:56:25.976Z,1014.5
2023-05-03T02:57:42.285Z,1014.4
2023-05-03T02:58:58.585Z,1014.5
2023-05-03T03:00:14.855Z,1014.5
2023-05-03T03:01:31.174Z,1014.5
2023-05-03T03:02:47.476Z,1014.5
2023-05-03T03:04:03.739Z,1014.5
2023-05-03T03:05:20.028Z,1014.5
2023-05-03T03:06:36.348Z,1014.5
2023-05-03T03:07:52.567Z,1014.4
2023-05-03T03:09:08.865Z,1014.4
2023-05-03T03:10:25.155Z,1014.5
2023-05-03T03:11:40.418Z,1014.4
2023-05-03T03:12:56.675Z,1014.5
2023-05-03T03:14:12.951Z,1014.5
2023-05-03T03:15:29.250Z,1014.5
2023-05-03T03:16:45.569Z,1014.5
2023-05-03T03:18:01.824Z,1014.5
2023-05-03T03:19:18.129Z,1014.5
2023-05-03T03:20:34.383Z,1014.6
2023-05-03T03:21:50.658Z,1014.6
2023-05-03T03:23:06.903Z,1014.5
2023-05-03T03:24:23.154Z,1014.5
2023-05-03T03:25:39.381Z,1014.6
2023-05-03T03:26:55.629Z,1014.6
2023-05-03T03:28:10.851Z,1014.6
2023-05-03T03:29:27.000Z,1014.7
2023-05-03T03:30:43.000Z,1014.7
2023-05-03T03:31:59.574Z,1014.7
2023-05-03T03:33:15.811Z,1014.7
2023-05-03T03:34:32.072Z,1014.7
2023-05-03T03:35:48.319Z,1014.7
2023-05-03T03:37:04.558Z,1014.8
2023-05-03T03:38:20.000Z,1014.8
2023-05-03T03:39:37.034Z,1014.8
2023-05-03T03:40:53.275Z,1014.8
2023-05-03T03:42:09.485Z,1014.8
2023-05-03T03:43:25.725Z,1014.8
2023-05-03T03:44:41.018Z,1014.8
2023-05-03T03:45:57.255Z,1014.8
2023-05-03T03:47:13.000Z,1014.8
2023-05-03T03:48:29.702Z,1014.8
2023-05-03T03:49:45.950Z,1014.8
2023-05-03T03:51:02.209Z,1014.8
2023-05-03T03:52:18.000Z,1014.8
2023-05-03T03:53:34.696Z,1014.8
2023-05-03T03:54:50.940Z,1014.8
2023-05-03T03:56:07.172Z,1014.8
2023-05-03T03:57:23.388Z,1014.8
2023-05-03T03:58:39.000Z,1014.8
2023-05-03T03:59:55.864Z,1014.8
2023-05-03T04:01:11.000Z,1014.8
2023-05-03T04:02:27.367Z,1014.9
2023-05-03T04:03:43.599Z,1014.9
2023-05-03T04:04:59.868Z,1014.9
2023-05-03T04:06:16.109Z,1014.9
2023-05-03T04:07:32.329Z,1014.9
2023-05-03T04:08:48.588Z,1015
2023-05-03T04:10:04.821Z,1015
2023-05-03T04:11:21.000Z,1015
2023-05-03T04:12:37.303Z,1015
2023-05-03T04:13:53.529Z,1015.1
2023-05-03T04:15:09.000Z,1015.1
2023-05-03T04:16:25.998Z,1015.1
2023-05-03T04:17:41.253Z,1015.1
2023-05-03T04:18:57.517Z,1015.1
2023-05-03T04:20:13.737Z,1015.1
2023-05-03T04:21:29.986Z,1015.1
2023-05-03T04:22:46.212Z,1015.1
2023-05-03T04:24:02.485Z,1015.1
2023-05-03T04:25:18.000Z,1015.1
2023-05-03T04:26:34.934Z,1015.2
2023-05-03T04:27:51.169Z,1015.2
2023-05-03T04:29:07.000Z,1015.1
2023-05-03T04:30:23.653Z,1015.2
2023-05-03T04:31:39.891Z,1015.2
2023-05-03T04:32:56.147Z,1015.2
2023-05-03T04:34:11.390Z,1015.3
2023-05-03T04:35:27.628Z,1015.3
2023-05-03T04:36:43.867Z,1015.3
2023-05-03T04:38:00.103Z,1015.3
2023-05-03T04:39:16.373Z,1015.3
2023-05-03T04:40:32.584Z,1015.3
2023-05-03T04:41:48.827Z,1015.3
2023-05-03T04:43:05.093Z,1015.3
2023-05-03T04:44:21.333Z,1015.4
2023-05-03T04:45:37.000Z,1015.4
2023-05-03T04:46:53.818Z,1015.4
2023-05-03T04:48:10.023Z,1015.4
2023-05-03T04:49:26.271Z,1015.4
2023-05-03T04:50:41.530Z,1015.4
2023-05-03T04:51:57.795Z,1015.5
2023-05-03T04:53:14.029Z,1015.5
2023-05-03T04:54:30.266Z,1015.5
2023-05-03T04:55:46.517Z,1015.6
2023-05-03T04:57:02.749Z,1015.5
2023-05-03T04:58:18.986Z,1015.5
2023-05-03T04:59:35.229Z,1015.6
2023-05-03T05:00:51.435Z,1015.5
2023-05-03T05:02:07.000Z,1015.5
2023-05-03T05:03:23.925Z,1015.6
2023-05-03T05:04:40.195Z,1015.6
2023-05-03T05:05:56.400Z,1015.5
2023-05-03T05:07:11.658Z,1015.5
2023-05-03T05:08:27.901Z,1015.6
2023-05-03T05:09:44.168Z,1015.6
2023-05-03T05:11:00.385Z,1015.6
2023-05-03T05:12:16.649Z,1015.6
2023-05-03T05:13:32.852Z,1015.6
2023-05-03T05:14:49.094Z,1015.6
2023-05-03T05:16:05.343Z,1015.6
2023-05-03T05:17:21.597Z,1015.7
2023-05-03T05:18:37.000Z,1015.7
2023-05-03T05:19:54.048Z,1015.6
2023-05-03T05:21:10.333Z,1015.6
2023-05-03T05:22:26.555Z,1015.6
2023-05-03T05:23:41.787Z,1015.7
2023-05-03T05:24:58.027Z,1015.6
2023-05-03T05:26:14.274Z,1015.6
2023-05-03T05:27:30.000Z,1015.7
2023-05-03T05:28:46.747Z,1015.6
2023-05-03T05:30:03.000Z,1015.6
2023-05-03T05:31:19.226Z,1015.6
2023-05-03T05:32:35.492Z,1015.6
2023-05-03T05:33:51.707Z,1015.7
2023-05-03T05:35:07.944Z,1015.7
2023-05-03T05:36:24.186Z,1015.7
2023-05-03T05:37:40.421Z,1015.7
2023-05-03T05:38:56.663Z,1015.7
2023-05-03T05:40:11.948Z,1015.8
2023-05-03T05:41:28.187Z,1015.7
2023-05-03T05:42:44.427Z,1015.7
2023-05-03T05:44:00.673Z,1015.7
2023-05-03T05:45:16.911Z,1015.7
2023-05-03T05:46:33.130Z,1015.7
2023-05-03T05:47:49.388Z,1015.7
2023-05-03T05:49:05.638Z,1015.7
2023-05-03T05:50:21.000Z,1015.7
2023-05-03T05:51:38.119Z,1015.7
2023-05-03T05:52:54.330Z,1015.7
2023-05-03T05:54:10.589Z,1015.7
2023-05-03T05:55:26.801Z,1015.7
2023-05-03T05:56:42.060Z,1015.7
2023-05-03T05:57:58.000Z,1015.7
2023-05-03T05:59:14.543Z,1015.7
2023-05-03T06:00:30.779Z,1015.7
2023-05-03T06:01:47.044Z,1015.7
2023-05-03T06:03:03.272Z,1015.8
2023-05-03T06:04:19.528Z,1015.8
2023-05-03T06:05:35.739Z,1015.8
2023-05-03T06:06:52.000Z,1015.7
2023-05-03T06:08:08.000Z,1015.7
2023-05-03T06:09:24.457Z,1015.7
2023-05-03T06:10:40.698Z,1015.7
2023-05-03T06:11:56.967Z,1015.7
2023-05-03T06:13:12.236Z,1015.7
2023-05-03T06:14:28.476Z,1015.7
2023-05-03T06:15:44.000Z,1015.8
2023-05-03T06:17:00.911Z,1015.7
2023-05-03T06:18:17.152Z,1015.8
2023-05-03T06:19:33.429Z,1015.8
2023-05-03T06:20:49.661Z,1015.8
2023-05-03T06:22:05.906Z,1015.8
2023-05-03T06:23:22.114Z,1015.8
2023-05-03T06:24:38.346Z,1015.8
2023-05-03T06:25:54.615Z,1015.9
2023-05-03T06:27:10.869Z,1015.8
2023-05-03T06:28:27.110Z,1015.9
2023-05-03T06:29:42.322Z,1015.9
2023-05-03T06:30:58.601Z,1015.9
2023-05-03T06:32:14.841Z,1015.9
2023-05-03T06:33:31.050Z,1015.9
2023-05-03T06:34:47.323Z,1015.9
2023-05-03T06:36:03.562Z,1015.9
2023-05-03T06:37:19.797Z,1015.8
2023-05-03T06:38:36.037Z,1015.9
2023-05-03T06:39:52.247Z,1015.9
2023-05-03T06:41:08.483Z,1015.9
2023-05-03T06:42:24.757Z,1015.9
2023-05-03T06:43:40.971Z,1015.9
2023-05-03T06:44:57.243Z,1015.8
2023-05-03T06:46:12.000Z,1015.8
2023-05-03T06:47:28.734Z,1015.8
2023-05-03T06:48:44.967Z,1015.8
2023-05-03T06:50:01.181Z,1015.8
2023-05-03T06:51:17.421Z,1015.8
2023-05-03T06:52:33.689Z,1015.8
2023-05-03T06:53:49.000Z,1015.8
2023-05-03T06:55:06.000Z,1015.9
2023-05-03T06:56:22.390Z,1015.8
2023-05-03T06:57:38.649Z,1015.8
2023-05-03T06:58:54.861Z,1015.8
2023-05-03T07:00:11.120Z,1015.8
2023-05-03T07:01:27.356Z,1015.8
2023-05-03T07:02:42.614Z,1015.8
2023-05-03T07:03:58.867Z,1015.8
2023-05-03T07:05:15.077Z,1015.8
2023-05-03T07:06:31.351Z,1015.8
2023-05-03T07:07:47.000Z,1015.8
2023-05-03T07:09:03.827Z,1015.8
2023-05-03T07:10:19.000Z,1015.8
2023-05-03T07:11:35.310Z,1015.8
2023-05-03T07:12:51.548Z,1015.8
2023-05-03T07:14:07.789Z,1015.8
2023-05-03T07:15:24.054Z,1015.7
2023-05-03T07:16:40.263Z,1015.8
2023-05-03T07:17:56.504Z,1015.7
2023-05-03T07:19:12.746Z,1015.8
2023-05-03T07:20:28.988Z,1015.8
2023-05-03T07:21:45.231Z,1015.8
2023-05-03T07:23:01.479Z,1015.8
2023-05-03T07:24:17.704Z,1015.8
2023-05-03T07:25:33.958Z,1015.8
2023-05-03T07:26:49.219Z,1015.9
2023-05-03T07:28:05.480Z,1015.9
2023-05-03T07:29:21.697Z,1015.9
2023-05-03T07:30:37.000Z,1015.8
2023-05-03T07:31:54.162Z,1015.8
2023-05-03T07:33:10.417Z,1015.8
2023-05-03T07:34:26.644Z,1015.8
2023-05-03T07:35:42.884Z,1015.8
2023-05-03T07:36:59.128Z,1015.7
2023-05-03T07:38:15.374Z,1015.7
2023-05-03T07:39:31.606Z,1015.7
2023-05-03T07:40:47.860Z,1015.7
2023-05-03T07:42:04.084Z,1015.7
2023-05-03T07:43:19.353Z,1015.7
2023-05-03T07:44:35.611Z,1015.8
2023-05-03T07:45:51.856Z,1015.7
2023-05-03T07:47:08.068Z,1015.7
2023-05-03T07:48:24.314Z,1015.7
2023-05-03T07:49:40.559Z,1015.7
2023-05-03T07:50:56.791Z,1015.7
2023-05-03T07:52:13.052Z,1015.7
2023-05-03T07:53:29.290Z,1015.7
2023-05-03T07:54:45.508Z,1015.7
2023-05-03T07:56:01.746Z,1015.7
2023-05-03T07:57:18.032Z,1015.7
2023-05-03T07:58:34.261Z,1015.7
2023-05-03T07:59:50.473Z,1015.6
2023-05-03T08:01:05.734Z,1015.6
2023-05-03T08:02:21.970Z,1015.6
2023-05-03T08:03:38.209Z,1015.6
2023-05-03T08:04:54.479Z,1015.6
2023-05-03T08:06:10.717Z,1015.6
2023-05-03T08:07:26.939Z,1015.6
2023-05-03T08:08:43.175Z,1015.6
2023-05-03T08:09:59.436Z,1015.6
2023-05-03T08:11:15.638Z,1015.6
2023-05-03T08:12:31.880Z,1015.6
2023-05-03T08:13:48.139Z,1015.6
2023-05-03T08:15:04.359Z,1015.6
2023-05-03T08:16:20.601Z,1015.6
2023-05-03T08:17:35.871Z,1015.6
2023-05-03T08:18:52.132Z,1015.6
2023-05-03T08:20:08.338Z,1015.6
2023-05-03T08:21:24.577Z,1015.7
2023-05-03T08:22:40.854Z,1015.6
2023-05-03T08:23:57.088Z,1015.6
2023-05-03T08:25:13.306Z,1015.7
2023-05-03T08:26:29.582Z,1015.6
2023-05-03T08:27:45.776Z,1015.6
2023-05-03T08:29:02.031Z,1015.6
2023-05-03T08:30:18.260Z,1015.7
2023-05-03T08:31:34.505Z,1015.7
2023-05-03T08:32:50.772Z,1015.7
2023-05-03T08:34:06.028Z,1015.7
2023-05-03T08:35:22.271Z,1015.6
2023-05-03T08:36:38.508Z,1015.6
2023-05-03T08:37:54.745Z,1015.6
2023-05-03T08:39:10.993Z,1015.6
2023-05-03T08:40:27.192Z,1015.6
2023-05-03T08:41:43.463Z,1015.6
2023-05-03T08:42:59.675Z,1015.6
2023-05-03T08:44:15.944Z,1015.6
2023-05-03T08:45:32.160Z,1015.6
2023-05-03T08:46:48.410Z,1015.6
2023-05-03T08:48:04.646Z,1015.6
2023-05-03T08:49:20.889Z,1015.6
2023-05-03T08:50:36.131Z,1015.6
2023-05-03T08:51:52.369Z,1015.6
2023-05-03T08:53:08.608Z,1015.6
2023-05-03T08:54:24.862Z,1015.6
2023-05-03T08:55:41.090Z,1015.6
2023-05-03T08:56:57.339Z,1015.6
2023-05-03T08:58:13.578Z,1015.6
2023-05-03T08:59:29.000Z,1015.7
2023-05-03T09:00:46.057Z,1015.7
2023-05-03T09:02:02.318Z,1015.7
2023-05-03T09:03:18.541Z,1015.7
2023-05-03T09:04:34.772Z,1015.7
2023-05-03T09:05:51.037Z,1015.6
2023-05-03T09:07:06.273Z,1015.6
2023-05-03T09:08:22.533Z,1015.5
2023-05-03T09:09:38.740Z,1015.5
2023-05-03T09:10:54.993Z,1015.6
2023-05-03T09:12:11.000Z,1015.6
2023-05-03T09:13:27.491Z,1015.7
2023-05-03T09:14:43.731Z,1015.6
2023-05-03T09:15:59.971Z,1015.6
2023-05-03T09:17:16.186Z,1015.6
2023-05-03T09:18:32.454Z,1015.6
2023-05-03T09:19:48.686Z,1015.6
2023-05-03T09:21:04.906Z,1015.6
2023-05-03T09:22:21.142Z,1015.5
2023-05-03T09:23:36.391Z,1015.6
2023-05-03T09:24:52.629Z,1015.6
2023-05-03T09:26:08.885Z,1015.6
2023-05-03T09:27:25.122Z,1015.6
2023-05-03T09:28:41.350Z,1015.6
2023-05-03T09:29:57.595Z,1015.6
2023-05-03T09:31:13.829Z,1015.6
2023-05-03T09:32:30.101Z,1015.6
2023-05-03T09:33:46.315Z,1015.5
2023-05-03T09:35:02.583Z,1015.5
2023-05-03T09:36:18.781Z,1015.5
2023-05-03T09:37:35.030Z,1015.5
2023-05-03T09:38:51.262Z,1015.5
2023-05-03T09:40:06.519Z,1015.5
2023-05-03T09:41:22.767Z,1015.5
2023-05-03T09:42:39.001Z,1015.5
2023-05-03T09:43:55.273Z,1015.5
2023-05-03T09:45:11.492Z,1015.4
2023-05-03T09:46:27.715Z,1015.4
2023-05-03T09:47:43.989Z,1015.5
2023-05-03T09:49:00.195Z,1015.5
2023-05-03T09:50:16.470Z,1015.5
2023-05-03T09:51:32.676Z,1015.5
2023-05-03T09:52:48.913Z,1015.5
2023-05-03T09:54:05.162Z,1015.4
2023-05-03T09:55:21.392Z,1015.4
2023-05-03T09:56:36.693Z,1015.4
2023-05-03T09:57:52.921Z,1015.4
2023-05-03T09:59:09.121Z,1015.4
2023-05-03T10:00:25.395Z,1015.4
2023-05-03T10:01:41.609Z,1015.4
2023-05-03T10:02:57.881Z,1015.4
2023-05-03T10:04:14.081Z,1015.3
2023-05-03T10:05:30.324Z,1015.3
2023-05-03T10:06:46.571Z,1015.3
2023-05-03T10:08:02.814Z,1015.3
2023-05-03T10:09:19.085Z,1015.3
2023-05-03T10:10:35.311Z,1015.3
2023-05-03T10:11:51.513Z,1015.3
2023-05-03T10:13:06.808Z,1015.3
2023-05-03T10:14:23.059Z,1015.3
2023-05-03T10:15:39.260Z,1015.3
2023-05-03T10:16:55.493Z,1015.2
2023-05-03T10:18:11.726Z,1015.2
2023-05-03T10:19:27.971Z,1015.2
2023-05-03T10:20:44.000Z,1015.2
2023-05-03T10:22:00.443Z,1015.2
2023-05-03T10:23:16.685Z,1015.2
2023-05-03T10:24:32.962Z,1015.2
2023-05-03T10:25:49.170Z,1015.2
2023-05-03T10:27:05.411Z,1015.2
2023-05-03T10:28:21.677Z,1015.2
2023-05-03T10:29:37.891Z,1015.2
2023-05-03T10:30:53.138Z,1015.2
2023-05-03T10:32:09.404Z,1015.2
2023-05-03T10:33:25.645Z,1015.1
2023-05-03T10:34:41.891Z,1015.2
2023-05-03T10:35:58.104Z,1015.2
2023-05-03T10:37:14.330Z,1015.1
2023-05-03T10:38:30.608Z,1015.1
2023-05-03T10:39:46.811Z,1015.1
2023-05-03T10:41:03.057Z,1015.1
2023-05-03T10:42:19.288Z,1015.1
2023-05-03T10:43:35.519Z,1015.2
2023-05-03T10:44:51.000Z,1015.1
2023-05-03T10:46:08.001Z,1015.2
2023-05-03T10:47:23.296Z,1015.2
2023-05-03T10:48:39.496Z,1015.1
2023-05-03T10:49:55.743Z,1015.1
2023-05-03T10:51:12.007Z,1015.2
2023-05-03T10:52:28.206Z,1015.2
2023-05-03T10:53:44.489Z,1015.1
2023-05-03T10:55:00.723Z,1015.2
2023-05-03T10:56:16.923Z,1015.2
2023-05-03T10:57:33.214Z,1015.2
2023-05-03T10:58:49.400Z,1015.2
2023-05-03T11:00:05.655Z,1015.2
2023-05-03T11:01:21.000Z,1015.2
2023-05-03T11:02:38.118Z,1015.2
2023-05-03T11:03:53.370Z,1015.1
2023-05-03T11:05:09.634Z,1015.1
2023-05-03T11:06:25.881Z,1015.1
2023-05-03T11:07:42.122Z,1015.1
2023-05-03T11:08:58.350Z,1015.1
2023-05-03T11:10:14.601Z,1015.1
2023-05-03T11:11:30.829Z,1015.1
2023-05-03T11:12:47.081Z,1015.1
2023-05-03T11:14:03.318Z,1015.1
2023-05-03T11:15:19.547Z,1015.1
2023-05-03T11:16:35.793Z,1015.1
2023-05-03T11:17:52.000Z,1015.1
2023-05-03T11:19:08.265Z,1015.1
2023-05-03T11:20:23.520Z,1015.1
2023-05-03T11:21:39.758Z,1015.1
2023-05-03T11:22:56.003Z,1015.1
2023-05-03T11:24:12.234Z,1015
2023-05-03T11:25:27.493Z,1015.1
2023-05-03T11:26:43.745Z,1015.1
2023-05-03T11:27:59.000Z,1015.1
2023-05-03T11:29:16.209Z,1015.1
2023-05-03T11:30:32.463Z,1015
2023-05-03T11:31:48.691Z,1015
2023-05-03T11:33:04.927Z,1015.1
2023-05-03T11:34:21.175Z,1015.1
2023-05-03T11:35:37.413Z,1015
2023-05-03T11:36:53.646Z,1015
2023-05-03T11:38:09.890Z,1015
2023-05-03T11:39:26.130Z,1015
2023-05-03T11:40:42.371Z,1015
2023-05-03T11:41:57.612Z,1014.9
2023-05-03T11:43:13.000Z,1014.9
2023-05-03T11:44:30.109Z,1014.9
2023-05-03T11:45:46.329Z,1015
2023-05-03T11:47:02.580Z,1015
2023-05-03T11:48:18.000Z,1015
2023-05-03T11:49:35.063Z,1015
2023-05-03T11:50:51.286Z,1015
2023-05-03T11:52:07.535Z,1015
2023-05-03T11:53:23.000Z,1014.9
2023-05-03T11:54:40.009Z,1014.9
2023-05-03T11:55:56.242Z,1014.9
2023-05-03T11:57:12.487Z,1014.9
2023-05-03T11:58:27.735Z,1014.9
2023-05-03T11:59:43.979Z,1015
2023-05-03T12:01:00.220Z,1014.9
2023-05-03T12:02:16.461Z,1014.9
2023-05-03T12:03:32.697Z,1014.9
2023-05-03T12:04:48.937Z,1014.9
2023-05-03T12:06:05.169Z,1015
2023-05-03T12:07:21.420Z,1014.9
2023-05-03T12:08:37.662Z,1014.9
2023-05-03T12:09:53.896Z,1015
2023-05-03T12:11:10.144Z,1014.9
2023-05-03T12:12:26.388Z,1014.9
2023-05-03T12:13:42.611Z,1014.9
2023-05-03T12:14:57.872Z,1014.9
2023-05-03T12:16:14.103Z,1014.9
2023-05-03T12:17:30.356Z,1014.8
2023-05-03T12:18:46.587Z,1014.9
2023-05-03T12:20:02.823Z,1014.8
2023-05-03T12:21:19.058Z,1014.8
2023-05-03T12:22:35.315Z,1014.8
2023-05-03T12:23:51.553Z,1014.8
2023-05-03T12:25:07.793Z,1014.8
2023-05-03T12:26:24.028Z,1014.8
2023-05-03T12:27:40.260Z,1014.8
2023-05-03T12:28:56.503Z,1014.8
2023-05-03T12:30:12.741Z,1014.8
2023-05-03T12:31:27.991Z,1014.8
2023-05-03T12:32:44.227Z,1014.8
2023-05-03T12:34:00.474Z,1014.8
2023-05-03T12:35:16.705Z,1014.8
2023-05-03T12:36:32.948Z,1014.8
2023-05-03T12:37:49.187Z,1014.8
2023-05-03T12:39:05.434Z,1014.7
2023-05-03T12:40:21.683Z,1014.7
2023-05-03T12:41:37.925Z,1014.6
2023-05-03T12:42:54.162Z,1014.6
2023-05-03T12:44:10.392Z,1014.6
2023-05-03T12:45:26.631Z,1014.6
2023-05-03T12:46:42.868Z,1014.7
2023-05-03T12:47:58.121Z,1014.6
2023-05-03T12:49:14.371Z,1014.6
2023-05-03T12:50:30.607Z,1014.6
2023-05-03T12:51:46.845Z,1014.5
2023-05-03T12:53:03.078Z,1014.5
2023-05-03T12:54:19.322Z,1014.5
2023-05-03T12:55:35.566Z,1014.5
2023-05-03T12:56:51.808Z,1014.5
2023-05-03T12:58:08.043Z,1014.5
2023-05-03T12:59:24.283Z,1014.5
2023-05-03T13:00:40.520Z,1014.5
2023-05-03T13:01:56.751Z,1014.5
2023-05-03T13:03:12.993Z,1014.5
2023-05-03T13:04:28.261Z,1014.4
2023-05-03T13:05:44.489Z,1014.4
2023-05-03T13:07:00.732Z,1014.4
2023-05-03T13:08:16.971Z,1014.5
2023-05-03T13:09:33.213Z,1014.4
2023-05-03T13:10:49.445Z,1014.4
2023-05-03T13:12:05.695Z,1014.4
2023-05-03T13:13:21.939Z,1014.4
2023-05-03T13:14:38.173Z,1014.4
2023-05-03T13:15:54.401Z,1014.4
2023-05-03T13:17:10.000Z,1014.4
2023-05-03T13:18:26.886Z,1014.3
2023-05-03T13:19:43.143Z,1014.3
2023-05-03T13:20:58.394Z,1014.3
2023-05-03T13:22:14.632Z,1014.3
2023-05-03T13:23:30.856Z,1014.3
2023-05-03T13:24:47.100Z,1014.2
2023-05-03T13:26:03.350Z,1014.2
2023-05-03T13:27:19.583Z,1014.2
2023-05-03T13:28:35.819Z,1014.1
2023-05-03T13:29:52.054Z,1014.2
2023-05-03T13:31:08.321Z,1014.2
2023-05-03T13:32:24.539Z,1014.1
2023-05-03T13:33:40.792Z,1014.1
2023-05-03T13:34:57.019Z,1014.1
2023-05-03T13:36:13.263Z,1014.1
2023-05-03T13:37:28.528Z,1014.1
2023-05-03T13:38:44.765Z,1014
2023-05-03T13:40:00.999Z,1014
2023-05-03T13:41:17.248Z,1014
2023-05-03T13:42:33.502Z,1014
2023-05-03T13:43:49.715Z,1014
2023-05-03T13:45:05.958Z,1013.9
2023-05-03T13:46:22.209Z,1013.9
2023-05-03T13:47:38.443Z,1014
2023-05-03T13:48:54.689Z,1013.9
2023-05-03T13:50:10.941Z,1013.9
2023-05-03T13:51:27.157Z,1013.8
2023-05-03T13:52:43.416Z,1013.8
2023-05-03T13:53:58.655Z,1013.7
2023-05-03T13:55:14.909Z,1013.7
2023-05-03T13:56:31.161Z,1013.7
2023-05-03T13:57:47.401Z,1013.8
2023-05-03T13:59:03.000Z,1013.8
2023-05-03T14:00:19.860Z,1013.8
2023-05-03T14:01:36.111Z,1013.8
2023-05-03T14:02:52.000Z,1013.8
2023-05-03T14:04:08.611Z,1013.8
2023-05-03T14:05:24.837Z,1013.8
2023-05-03T14:06:41.062Z,1013.8
2023-05-03T14:07:57.320Z,1013.8
2023-05-03T14:09:13.539Z,1013.8
2023-05-03T14:10:28.795Z,1013.8
2023-05-03T14:11:45.054Z,1013.8
2023-05-03T14:13:01.279Z,1013.7
2023-05-03T14:14:17.511Z,1013.7
2023-05-03T14:15:33.763Z,1013.7
2023-05-03T14:16:50.006Z,1013.7
2023-05-03T14:18:06.255Z,1013.7
2023-05-03T14:19:22.478Z,1013.7
2023-05-03T14:20:38.753Z,1013.7
2023-05-03T14:21:54.971Z,1013.7
2023-05-03T14:23:11.205Z,1013.7
2023-05-03T14:24:27.459Z,1013.6
2023-05-03T14:25:43.704Z,1013.7
2023-05-03T14:26:58.944Z,1013.6
2023-05-03T14:28:15.188Z,1013.7
2023-05-03T14:29:31.424Z,1013.7
2023-05-03T14:30:47.666Z,1013.6
2023-05-03T14:32:03.905Z,1013.7
2023-05-03T14:33:20.147Z,1013.6
2023-05-03T14:34:36.384Z,1013.6
2023-05-03T14:35:52.642Z,1013.6
2023-05-03T14:37:08.870Z,1013.6
2023-05-03T14:38:25.106Z,1013.6
2023-05-03T14:39:41.357Z,1013.6
2023-05-03T14:40:57.600Z,1013.5
2023-05-03T14:42:13.832Z,1013.5
2023-05-03T14:43:29.086Z,1013.5
2023-05-03T14:44:45.329Z,1013.6
2023-05-03T14:46:01.567Z,1013.6
2023-05-03T14:47:17.794Z,1013.5
2023-05-03T14:48:34.034Z,1013.5
2023-05-03T14:49:50.291Z,1013.5
2023-05-03T14:51:06.516Z,1013.5
2023-05-03T14:52:22.753Z,1013.5
2023-05-03T14:53:39.004Z,1013.5
2023-05-03T14:54:55.245Z,1013.5
2023-05-03T14:56:11.484Z,1013.5
2023-05-03T14:57:27.720Z,1013.4
2023-05-03T14:58:43.954Z,1013.5
2023-05-03T14:59:59.225Z,1013.5
2023-05-03T15:01:15.451Z,1013.5
2023-05-03T15:02:31.709Z,1013.4
2023-05-03T15:03:47.932Z,1013.4
2023-05-03T15:05:04.176Z,1013.4
2023-05-03T15:06:20.412Z,1013.4
2023-05-03T15:07:36.653Z,1013.5
2023-05-03T15:08:52.878Z,1013.4
2023-05-03T15:10:09.130Z,1013.4
2023-05-03T15:11:25.369Z,1013.4
2023-05-03T15:12:41.607Z,1013.4
2023-05-03T15:13:57.847Z,1013.4
2023-05-03T15:15:14.085Z,1013.4
2023-05-03T15:16:29.344Z,1013.4
2023-05-03T15:17:45.576Z,1013.4
2023-05-03T15:19:01.812Z,1013.3
2023-05-03T15:20:18.052Z,1013.3
2023-05-03T15:21:34.287Z,1013.3
2023-05-03T15:22:50.543Z,1013.3
2023-05-03T15:24:06.762Z,1013.3
2023-05-03T15:25:22.998Z,1013.3
2023-05-03T15:26:39.244Z,1013.3
2023-05-03T15:27:55.481Z,1013.3
2023-05-03T15:29:11.724Z,1013.3
2023-05-03T15:30:27.975Z,1013.3
2023-05-03T15:31:44.211Z,1013.3
2023-05-03T15:32:59.465Z,1013.2
2023-05-03T15:34:15.690Z,1013.3
2023-05-03T15:35:31.927Z,1013.2
2023-05-03T15:36:48.183Z,1013.2
2023-05-03T15:38:04.402Z,1013.2
2023-05-03T15:39:20.656Z,1013.2
2023-05-03T15:40:35.901Z,1013.2
2023-05-03T15:41:52.141Z,1013.1
2023-05-03T15:43:08.391Z,1013.1
2023-05-03T15:44:24.616Z,1013.1
2023-05-03T15:45:40.873Z,1013.1
2023-05-03T15:46:57.109Z,1013.1
2023-05-03T15:48:13.343Z,1013
2023-05-03T15:49:29.000Z,1013.1
2023-05-03T15:50:45.818Z,1013
2023-05-03T15:52:02.067Z,1013
2023-05-03T15:53:18.315Z,1013